createdAt,value
2024-01-06T00:01:16.803Z,-0.09
2024-01-06T00:03:50.041Z,-0.01
2024-01-06T00:06:23.238Z,-0.05
2024-01-06T00:08:56.346Z,-0.03
2024-01-06T00:11:29.340Z,-0.03
2024-01-06T00:14:03.710Z,0.01
2024-01-06T00:16:38.766Z,-0.01
2024-01-06T00:19:14.919Z,0.03
2024-01-06T00:21:47.975Z,0.02
2024-01-06T00:24:21.142Z,0.00
2024-01-06T00:26:54.214Z,-0.03
2024-01-06T00:29:27.749Z,-0.02
2024-01-06T00:32:02.118Z,-0.07
2024-01-06T00:34:36.695Z,-0.09
2024-01-06T00:37:09.723Z,-0.08
2024-01-06T00:39:45.285Z,-0.03
2024-01-06T00:42:18.346Z,0.02
2024-01-06T00:44:52.134Z,-0.09
2024-01-06T00:47:26.946Z,-0.05
2024-01-06T00:50:00.229Z,0.01
2024-01-06T00:52:33.373Z,0.03
2024-01-06T00:55:06.823Z,-0.02
2024-01-06T00:57:39.849Z,0.01
2024-01-06T01:00:14.714Z,0.01
2024-01-06T01:02:49.444Z,-0.03
2024-01-06T01:05:22.577Z,-0.10
2024-01-06T01:07:55.814Z,-0.03
2024-01-06T01:10:28.866Z,-0.02
2024-01-06T01:13:04.736Z,0.01
2024-01-06T01:15:37.895Z,0.08
2024-01-06T01:18:12.944Z,0.03
2024-01-06T01:20:46.165Z,0.03
2024-01-06T01:23:19.301Z,0.01
2024-01-06T01:25:52.125Z,0.05
2024-01-06T01:28:25.002Z,0.03
2024-01-06T01:30:58.788Z,-0.01
2024-01-06T01:33:33.634Z,-0.01
2024-01-06T01:36:07.531Z,-0.03
2024-01-06T01:38:40.331Z,-0.03
2024-01-06T01:41:13.090Z,0.02
2024-01-06T01:43:47.798Z,0.00
2024-01-06T01:46:21.508Z,-0.01
2024-01-06T01:48:56.893Z,0.08
2024-01-06T01:51:33.001Z,-0.05
2024-01-06T01:54:09.579Z,-0.06
2024-01-06T01:56:44.870Z,-0.05
2024-01-06T01:59:21.095Z,-0.06
2024-01-06T02:01:54.498Z,-0.09
2024-01-06T02:04:28.595Z,-0.06
2024-01-06T02:07:01.679Z,-0.04
2024-01-06T02:09:34.893Z,-0.02
2024-01-06T02:12:10.703Z,-0.08
2024-01-06T02:14:44.463Z,-0.08
2024-01-06T02:17:17.241Z,-0.07
2024-01-06T02:19:51.804Z,-0.06
2024-01-06T02:22:26.676Z,-0.04
2024-01-06T02:24:59.648Z,-0.06
2024-01-06T02:27:33.046Z,-0.07
2024-01-06T02:30:07.250Z,-0.18
2024-01-06T02:32:40.562Z,-0.11
2024-01-06T02:35:13.780Z,-0.07
2024-01-06T02:37:47.983Z,-0.08
2024-01-06T02:40:20.821Z,-0.10
2024-01-06T02:42:53.732Z,-0.09
2024-01-06T02:45:26.658Z,-0.08
2024-01-06T02:47:59.489Z,-0.10
2024-01-06T02:50:32.476Z,-0.20
2024-01-06T02:53:07.038Z,-0.15
2024-01-06T02:55:40.824Z,-0.11
2024-01-06T02:58:13.749Z,-0.12
2024-01-06T03:00:48.497Z,-0.14
2024-01-06T03:03:21.442Z,-0.12
2024-01-06T03:05:54.621Z,-0.16
2024-01-06T03:08:29.039Z,-0.17
2024-01-06T03:11:02.393Z,-0.21
2024-01-06T03:13:36.187Z,-0.18
2024-01-06T03:16:09.448Z,-0.16
2024-01-06T03:18:44.821Z,-0.16
2024-01-06T03:21:22.058Z,-0.25
2024-01-06T03:23:59.000Z,-0.25
2024-01-06T03:26:31.890Z,-0.18
2024-01-06T03:29:04.805Z,-0.19
2024-01-06T03:31:37.695Z,-0.20
2024-01-06T03:34:12.422Z,-0.21
2024-01-06T03:36:47.868Z,-0.17
2024-01-06T03:39:22.689Z,-0.23
2024-01-06T03:41:55.788Z,-0.23
2024-01-06T03:44:31.484Z,-0.22
2024-01-06T03:47:04.772Z,-0.20
2024-01-06T03:49:38.096Z,-0.23
2024-01-06T03:52:11.515Z,-0.22
2024-01-06T03:54:46.482Z,-0.26
2024-01-06T03:57:19.805Z,-0.34
2024-01-06T03:59:52.679Z,-0.25
2024-01-06T04:02:26.092Z,-0.20
2024-01-06T04:05:00.223Z,-0.23
2024-01-06T04:07:33.304Z,-0.29
2024-01-06T04:10:08.213Z,-0.27
2024-01-06T04:12:41.251Z,-0.26
2024-01-06T04:15:14.265Z,-0.28
2024-01-06T04:17:54.726Z,-0.20
2024-01-06T04:20:27.942Z,-0.18
2024-01-06T04:23:02.554Z,-0.21
2024-01-06T04:25:36.871Z,-0.22
2024-01-06T04:28:09.645Z,-0.20
2024-01-06T04:30:42.571Z,-0.16
2024-01-06T04:33:15.704Z,-0.17
2024-01-06T04:35:48.628Z,-0.17
2024-01-06T04:38:21.456Z,-0.16
2024-01-06T04:40:56.020Z,-0.23
2024-01-06T04:43:28.827Z,-0.22
2024-01-06T04:46:01.687Z,-0.19
2024-01-06T04:48:34.827Z,-0.17
2024-01-06T04:51:11.155Z,-0.21
2024-01-06T04:53:44.006Z,-0.22
2024-01-06T04:56:18.353Z,-0.24
2024-01-06T04:58:51.105Z,-0.24
2024-01-06T05:01:24.264Z,-0.16
2024-01-06T05:03:57.229Z,-0.20
2024-01-06T05:06:30.179Z,-0.25
2024-01-06T05:09:03.565Z,-0.23
2024-01-06T05:11:37.741Z,-0.18
2024-01-06T05:14:10.474Z,-0.23
2024-01-06T05:16:43.225Z,-0.22
2024-01-06T05:19:20.702Z,-0.18
2024-01-06T05:21:54.333Z,-0.24
2024-01-06T05:24:27.148Z,-0.24
2024-01-06T05:27:01.413Z,-0.28
2024-01-06T05:29:34.229Z,-0.33
2024-01-06T05:32:07.643Z,-0.23
2024-01-06T05:34:40.642Z,-0.23
2024-01-06T05:37:14.048Z,-0.25
2024-01-06T05:39:47.242Z,-0.28
2024-01-06T05:42:21.556Z,-0.26
2024-01-06T05:44:55.643Z,-0.29
2024-01-06T05:47:29.440Z,-0.28
2024-01-06T05:50:02.656Z,-0.34
2024-01-06T05:52:35.478Z,-0.36
2024-01-06T05:55:10.656Z,-0.35
2024-01-06T05:57:44.905Z,-0.36
2024-01-06T06:00:19.869Z,-0.33
2024-01-06T06:02:52.709Z,-0.37
2024-01-06T06:05:25.953Z,-0.32
2024-01-06T06:07:59.301Z,-0.31
2024-01-06T06:10:42.148Z,-0.27
2024-01-06T06:13:16.588Z,-0.29
2024-01-06T06:15:49.629Z,-0.29
2024-01-06T06:18:22.836Z,-0.37
2024-01-06T06:20:55.754Z,-0.25
2024-01-06T06:23:32.219Z,-0.31
2024-01-06T06:26:09.093Z,-0.31
2024-01-06T06:28:43.688Z,-0.33
2024-01-06T06:31:16.862Z,-0.28
2024-01-06T06:33:49.839Z,-0.31
2024-01-06T06:36:24.241Z,-0.27
2024-01-06T06:39:00.098Z,-0.29
2024-01-06T06:41:32.853Z,-0.34
2024-01-06T06:44:07.087Z,-0.33
2024-01-06T06:46:39.951Z,-0.34
2024-01-06T06:52:01.542Z,-0.36
2024-01-06T06:54:34.775Z,-0.33
2024-01-06T06:57:07.492Z,-0.37
2024-01-06T06:59:42.002Z,-0.37
2024-01-06T07:02:15.783Z,-0.38
2024-01-06T07:04:48.741Z,-0.35
2024-01-06T07:07:21.902Z,-0.42
2024-01-06T07:09:56.950Z,-0.40
2024-01-06T07:12:30.016Z,-0.39
2024-01-06T07:15:07.011Z,-0.42
2024-01-06T07:17:40.825Z,-0.36
2024-01-06T07:20:14.739Z,-0.31
2024-01-06T07:22:47.725Z,-0.32
2024-01-06T07:25:20.504Z,-0.38
2024-01-06T07:27:55.500Z,-0.34
2024-01-06T07:30:30.530Z,-0.33
2024-01-06T07:33:03.693Z,-0.31
2024-01-06T07:35:37.750Z,-0.31
2024-01-06T07:38:11.229Z,-0.31
2024-01-06T07:40:45.798Z,-0.31
2024-01-06T07:43:18.633Z,-0.34
2024-01-06T07:45:53.244Z,-0.26
2024-01-06T07:48:26.340Z,-0.27
2024-01-06T07:50:59.264Z,-0.26
2024-01-06T07:53:32.233Z,-0.29
2024-01-06T07:56:05.633Z,-0.31
2024-01-06T07:58:41.152Z,-0.31
2024-01-06T08:01:15.724Z,-0.34
2024-01-06T08:03:48.789Z,-0.27
2024-01-06T08:06:22.100Z,-0.21
2024-01-06T08:08:55.818Z,-0.24
2024-01-06T08:11:28.639Z,-0.19
2024-01-06T08:14:01.638Z,-0.19
2024-01-06T08:16:36.517Z,-0.22
2024-01-06T08:19:09.381Z,-0.22
2024-01-06T08:21:42.777Z,-0.22
2024-01-06T08:24:16.289Z,-0.21
2024-01-06T08:26:49.448Z,-0.23
2024-01-06T08:29:22.371Z,-0.25
2024-01-06T08:31:57.075Z,-0.22
2024-01-06T08:34:33.221Z,-0.20
2024-01-06T08:37:06.452Z,-0.21
2024-01-06T08:39:39.356Z,-0.24
2024-01-06T08:42:13.017Z,-0.25
2024-01-06T08:44:45.905Z,-0.21
2024-01-06T08:47:21.580Z,-0.17
2024-01-06T08:49:54.855Z,-0.12
2024-01-06T08:52:27.950Z,-0.10
2024-01-06T08:55:01.057Z,-0.15
2024-01-06T08:57:34.488Z,-0.17
2024-01-06T09:00:10.307Z,-0.09
2024-01-06T09:02:46.089Z,-0.05
2024-01-06T09:05:19.165Z,-0.07
2024-01-06T09:07:54.667Z,-0.08
2024-01-06T09:10:30.504Z,-0.15
2024-01-06T09:13:05.179Z,-0.16
2024-01-06T09:15:39.184Z,-0.10
2024-01-06T09:18:14.984Z,-0.08
2024-01-06T09:20:49.083Z,-0.07
2024-01-06T09:23:25.049Z,-0.05
2024-01-06T09:25:58.986Z,-0.06
2024-01-06T09:28:32.321Z,-0.07
2024-01-06T09:31:06.170Z,-0.04
2024-01-06T09:33:40.831Z,-0.05
2024-01-06T09:36:15.391Z,-0.06
2024-01-06T09:38:48.452Z,-0.06
2024-01-06T09:41:22.931Z,0.06
2024-01-06T09:43:55.937Z,0.06
2024-01-06T09:46:30.819Z,0.12
2024-01-06T09:49:05.299Z,0.10
2024-01-06T09:51:39.712Z,0.05
2024-01-06T09:54:16.319Z,0.01
2024-01-06T09:56:51.006Z,0.08
2024-01-06T09:59:24.370Z,0.10
2024-01-06T10:02:02.273Z,0.06
2024-01-06T10:04:38.975Z,-0.01
2024-01-06T10:07:14.702Z,0.04
2024-01-06T10:09:47.944Z,0.08
2024-01-06T10:12:24.955Z,0.09
2024-01-06T10:14:58.058Z,0.10
2024-01-06T10:17:31.069Z,0.05
2024-01-06T10:20:08.518Z,0.16
2024-01-06T10:22:44.757Z,0.14
2024-01-06T10:25:20.656Z,0.11
2024-01-06T10:27:55.539Z,0.09
2024-01-06T10:30:31.911Z,0.11
2024-01-06T10:33:11.655Z,0.12
2024-01-06T10:35:46.717Z,0.16
2024-01-06T10:38:20.051Z,0.14
2024-01-06T10:40:59.941Z,0.11
2024-01-06T10:43:37.534Z,0.07
2024-01-06T10:46:12.120Z,0.02
2024-01-06T10:48:47.061Z,0.12
2024-01-06T10:51:24.370Z,0.05
2024-01-06T10:54:00.169Z,0.10
2024-01-06T10:56:33.336Z,0.11
2024-01-06T10:59:06.242Z,0.12
2024-01-06T11:01:40.211Z,0.18
2024-01-06T11:04:17.555Z,0.07
2024-01-06T11:06:56.696Z,0.23
2024-01-06T11:09:34.997Z,0.28
2024-01-06T11:12:10.198Z,0.17
2024-01-06T11:14:46.962Z,0.18
2024-01-06T11:17:55.367Z,0.17
2024-01-06T11:20:28.871Z,0.11
2024-01-06T11:26:01.789Z,0.19
2024-01-06T11:28:45.994Z,0.11
2024-01-06T11:31:21.377Z,0.04
2024-01-06T11:33:57.486Z,0.09
2024-01-06T11:36:30.495Z,0.06
2024-01-06T11:39:03.419Z,-0.04
2024-01-06T11:41:51.331Z,-0.03
2024-01-06T11:44:24.301Z,-0.01
2024-01-06T11:46:58.947Z,-0.05
2024-01-06T11:49:33.183Z,-0.01
2024-01-06T11:52:07.357Z,-0.01
2024-01-06T11:54:41.670Z,0.07
2024-01-06T11:57:15.993Z,-0.06
2024-01-06T11:59:50.934Z,-0.10
2024-01-06T12:02:24.568Z,-0.10
2024-01-06T12:04:57.571Z,-0.06
2024-01-06T12:07:32.716Z,-0.03
2024-01-06T12:10:11.217Z,-0.07
2024-01-06T12:12:57.801Z,-0.09
2024-01-06T12:15:32.882Z,-0.11
2024-01-06T12:18:07.185Z,-0.19
2024-01-06T12:20:40.361Z,-0.16
2024-01-06T12:23:13.334Z,-0.19
2024-01-06T12:25:48.170Z,-0.18
2024-01-06T12:28:22.458Z,-0.29
2024-01-06T12:30:56.502Z,-0.27
2024-01-06T12:33:29.866Z,-0.20
2024-01-06T12:36:10.319Z,-0.22
2024-01-06T12:38:47.640Z,-0.29
2024-01-06T12:41:20.626Z,-0.22
2024-01-06T12:43:54.864Z,-0.25
2024-01-06T12:46:27.849Z,-0.27
2024-01-06T12:49:02.372Z,-0.27
2024-01-06T12:51:36.084Z,-0.22
2024-01-06T12:54:09.606Z,-0.25
2024-01-06T12:56:45.045Z,-0.25
2024-01-06T12:59:21.051Z,-0.27
2024-01-06T13:01:54.436Z,-0.21
2024-01-06T13:04:27.335Z,-0.28
2024-01-06T13:07:03.495Z,-0.23
2024-01-06T13:09:36.758Z,-0.21
2024-01-06T13:12:10.041Z,-0.20
2024-01-06T13:14:45.782Z,-0.20
2024-01-06T13:17:19.192Z,-0.19
2024-01-06T13:19:52.054Z,-0.20
2024-01-06T13:22:27.842Z,-0.18
2024-01-06T13:25:01.029Z,-0.13
2024-01-06T13:27:34.276Z,-0.19
2024-01-06T13:30:10.267Z,-0.21
2024-01-06T13:32:44.859Z,-0.22
2024-01-06T13:35:17.906Z,-0.25
2024-01-06T13:37:52.568Z,-0.21
2024-01-06T13:40:27.442Z,-0.19
2024-01-06T13:43:00.671Z,-0.20
2024-01-06T13:45:38.446Z,-0.22
2024-01-06T13:48:12.471Z,-0.31
2024-01-06T13:50:47.492Z,-0.31
2024-01-06T13:53:20.810Z,-0.27
2024-01-06T13:55:54.535Z,-0.35
2024-01-06T13:58:28.853Z,-0.37
2024-01-06T14:01:03.282Z,-0.33
2024-01-06T14:03:36.612Z,-0.37
2024-01-06T14:06:10.286Z,-0.30
2024-01-06T14:08:46.734Z,-0.43
2024-01-06T14:11:19.617Z,-0.39
2024-01-06T14:13:52.949Z,-0.41
2024-01-06T14:16:30.166Z,-0.42
2024-01-06T14:19:04.214Z,-0.42
2024-01-06T14:21:37.285Z,-0.46
2024-01-06T14:24:10.998Z,-0.46
2024-01-06T14:26:44.351Z,-0.41
2024-01-06T14:29:17.532Z,-0.53
2024-01-06T14:31:51.991Z,-0.46
2024-01-06T14:34:26.112Z,-0.46
2024-01-06T14:37:00.776Z,-0.45
2024-01-06T14:39:33.757Z,-0.48
2024-01-06T14:42:07.353Z,-0.54
2024-01-06T14:44:40.374Z,-0.46
2024-01-06T14:47:14.973Z,-0.54
2024-01-06T14:49:47.932Z,-0.49
2024-01-06T14:52:20.954Z,-0.56
2024-01-06T14:54:54.241Z,-0.57
2024-01-06T14:57:27.627Z,-0.49
2024-01-06T15:00:00.990Z,-0.54
2024-01-06T15:02:35.682Z,-0.48
2024-01-06T15:05:11.209Z,-0.55
2024-01-06T15:07:44.675Z,-0.59
2024-01-06T15:10:18.086Z,-0.54
2024-01-06T15:12:51.142Z,-0.51
2024-01-06T15:15:25.085Z,-0.49
2024-01-06T15:17:59.750Z,-0.54
2024-01-06T15:20:33.295Z,-0.54
2024-01-06T15:23:07.625Z,-0.59
2024-01-06T15:25:40.349Z,-0.52
2024-01-06T15:28:13.411Z,-0.58
2024-01-06T15:30:46.286Z,-0.59
2024-01-06T15:33:20.565Z,-0.55
2024-01-06T15:35:54.534Z,-0.62
2024-01-06T15:38:28.569Z,-0.59
2024-01-06T15:41:04.981Z,-0.53
2024-01-06T15:43:39.446Z,-0.58
2024-01-06T15:46:12.809Z,-0.57
2024-01-06T15:48:47.044Z,-0.59
2024-01-06T15:51:19.955Z,-0.62
2024-01-06T15:53:53.392Z,-0.67
2024-01-06T15:56:26.269Z,-0.64
2024-01-06T15:58:59.814Z,-0.67
2024-01-06T16:01:33.491Z,-0.69
2024-01-06T16:04:07.892Z,-0.70
2024-01-06T16:06:41.509Z,-0.73
2024-01-06T16:09:14.805Z,-0.71
2024-01-06T16:11:47.823Z,-0.77
2024-01-06T16:14:20.693Z,-0.82
2024-01-06T16:16:55.082Z,-0.90
2024-01-06T16:19:30.004Z,-0.86
2024-01-06T16:22:11.268Z,-0.86
2024-01-06T16:24:50.172Z,-0.83
2024-01-06T16:27:23.045Z,-0.75
2024-01-06T16:29:55.958Z,-0.82
2024-01-06T16:32:29.398Z,-0.75
2024-01-06T16:35:03.915Z,-0.72
2024-01-06T16:37:36.658Z,-0.73
2024-01-06T16:40:11.921Z,-0.73
2024-01-06T16:42:44.967Z,-0.70
2024-01-06T16:45:17.797Z,-0.67
2024-01-06T16:47:50.930Z,-0.66
2024-01-06T16:50:25.359Z,-0.58
2024-01-06T16:52:58.083Z,-0.59
2024-01-06T16:55:31.040Z,-0.59
2024-01-06T16:58:04.068Z,-0.64
2024-01-06T17:00:37.178Z,-0.63
2024-01-06T17:03:10.184Z,-0.67
2024-01-06T17:05:44.569Z,-0.71
2024-01-06T17:08:17.407Z,-0.70
2024-01-06T17:10:50.278Z,-0.66
2024-01-06T17:13:23.475Z,-0.69
2024-01-06T17:15:57.074Z,-0.68
2024-01-06T17:18:30.189Z,-0.65
2024-01-06T17:21:04.912Z,-0.67
2024-01-06T17:23:37.760Z,-0.63
2024-01-06T17:26:10.490Z,-0.64
2024-01-06T17:28:43.395Z,-0.60
2024-01-06T17:31:16.226Z,-0.58
2024-01-06T17:33:51.408Z,-0.56
2024-01-06T17:36:25.891Z,-0.59
2024-01-06T17:38:58.802Z,-0.59
2024-01-06T17:41:35.220Z,-0.54
2024-01-06T17:44:10.721Z,-0.56
2024-01-06T17:46:43.855Z,-0.55
2024-01-06T17:49:16.814Z,-0.48
2024-01-06T17:51:51.385Z,-0.50
2024-01-06T17:54:24.271Z,-0.46
2024-01-06T17:57:02.196Z,-0.51
2024-01-06T17:59:36.725Z,-0.45
2024-01-06T18:02:10.737Z,-0.49
2024-01-06T18:04:43.962Z,-0.50
2024-01-06T18:07:18.634Z,-0.51
2024-01-06T18:09:51.629Z,-0.56
2024-01-06T18:12:24.779Z,-0.55
2024-01-06T18:14:57.518Z,-0.56
2024-01-06T18:17:30.905Z,-0.60
2024-01-06T18:20:04.771Z,-0.64
2024-01-06T18:22:39.284Z,-0.58
2024-01-06T18:25:13.294Z,-0.69
2024-01-06T18:27:46.693Z,-0.72
2024-01-06T18:30:19.850Z,-0.65
2024-01-06T18:32:53.268Z,-0.64
2024-01-06T18:35:27.501Z,-0.65
2024-01-06T18:38:02.355Z,-0.64
2024-01-06T18:40:36.156Z,-0.63
2024-01-06T18:43:09.024Z,-0.58
2024-01-06T18:45:43.578Z,-0.60
2024-01-06T18:48:18.753Z,-0.59
2024-01-06T18:50:52.701Z,-0.68
2024-01-06T18:53:29.199Z,-0.67
2024-01-06T18:56:03.001Z,-0.65
2024-01-06T18:58:36.111Z,-0.63
2024-01-06T19:01:10.379Z,-0.62
2024-01-06T19:03:44.848Z,-0.68
2024-01-06T19:06:18.633Z,-0.59
2024-01-06T19:08:53.078Z,-0.58
2024-01-06T19:11:26.062Z,-0.58
2024-01-06T19:13:59.098Z,-0.58
2024-01-06T19:16:31.987Z,-0.61
2024-01-06T19:19:05.703Z,-0.61
2024-01-06T19:21:38.814Z,-0.58
2024-01-06T19:24:19.943Z,-0.55
2024-01-06T19:26:59.470Z,-0.54
2024-01-06T19:29:32.399Z,-0.50
2024-01-06T19:32:08.014Z,-0.52
2024-01-06T19:34:42.005Z,-0.64
2024-01-06T19:37:15.516Z,-0.56
2024-01-06T19:39:49.743Z,-0.58
2024-01-06T19:42:22.610Z,-0.49
2024-01-06T19:44:56.521Z,-0.56
2024-01-06T19:47:30.360Z,-0.54
2024-01-06T19:50:04.582Z,-0.59
2024-01-06T19:52:38.119Z,-0.57
2024-01-06T19:55:13.098Z,-0.56
2024-01-06T19:57:46.162Z,-0.57
2024-01-06T20:00:20.556Z,-0.55
2024-01-06T20:02:54.369Z,-0.56
2024-01-06T20:05:27.432Z,-0.60
2024-01-06T20:08:00.541Z,-0.60
2024-01-06T20:10:35.147Z,-0.62
2024-01-06T20:13:09.599Z,-0.57
2024-01-06T20:15:46.714Z,-0.59
2024-01-06T20:18:20.192Z,-0.54
2024-01-06T20:20:55.566Z,-0.56
2024-01-06T20:23:28.505Z,-0.60
2024-01-06T20:26:04.013Z,-0.54
2024-01-06T20:28:38.342Z,-0.54
2024-01-06T20:31:12.603Z,-0.54
2024-01-06T20:33:47.113Z,-0.49
2024-01-06T20:36:20.324Z,-0.53
2024-01-06T20:38:53.761Z,-0.54
2024-01-06T20:41:28.088Z,-0.54
2024-01-06T20:44:02.597Z,-0.53
2024-01-06T20:46:36.945Z,-0.53
2024-01-06T20:49:10.120Z,-0.57
2024-01-06T20:51:43.497Z,-0.49
2024-01-06T20:54:16.288Z,-0.54
2024-01-06T20:56:50.912Z,-0.56
2024-01-06T20:59:23.904Z,-0.56
2024-01-06T21:01:56.946Z,-0.47
2024-01-06T21:04:30.153Z,-0.48
2024-01-06T21:07:02.947Z,-0.49
2024-01-06T21:09:35.937Z,-0.48
2024-01-06T21:12:10.508Z,-0.57
2024-01-06T21:14:48.882Z,-0.54
2024-01-06T21:17:21.903Z,-0.51
2024-01-06T21:19:55.780Z,-0.46
2024-01-06T21:22:29.222Z,-0.50
2024-01-06T21:25:02.448Z,-0.49
2024-01-06T21:27:36.829Z,-0.43
2024-01-06T21:30:10.702Z,-0.43
2024-01-06T21:32:44.938Z,-0.44
2024-01-06T21:35:17.918Z,-0.51
2024-01-06T21:37:50.874Z,-0.57
2024-01-06T21:40:25.800Z,-0.70
2024-01-06T21:43:00.479Z,-0.71
2024-01-06T21:45:33.930Z,-0.78
2024-01-06T21:48:07.697Z,-0.75
2024-01-06T21:50:41.248Z,-0.75
2024-01-06T21:53:14.304Z,-0.79
2024-01-06T21:55:47.082Z,-0.77
2024-01-06T21:58:21.537Z,-0.84
2024-01-06T22:00:55.864Z,-0.92
2024-01-06T22:03:31.152Z,-0.86
2024-01-06T22:06:04.464Z,-0.89
2024-01-06T22:08:37.461Z,-0.90
2024-01-06T22:11:10.268Z,-0.86
2024-01-06T22:13:44.661Z,-0.79
2024-01-06T22:16:18.465Z,-0.79
2024-01-06T22:18:51.581Z,-0.80
2024-01-06T22:21:24.863Z,-0.75
2024-01-06T22:23:59.648Z,-0.73
2024-01-06T22:26:32.590Z,-0.77
2024-01-06T22:29:07.795Z,-0.74
2024-01-06T22:31:45.297Z,-0.70
2024-01-06T22:34:18.990Z,-0.66
2024-01-06T22:36:51.994Z,-0.63
2024-01-06T22:39:27.556Z,-0.60
2024-01-06T22:42:00.407Z,-0.67
2024-01-06T22:44:34.813Z,-0.62
2024-01-06T22:47:07.826Z,-0.54
2024-01-06T22:49:40.871Z,-0.54
2024-01-06T22:52:13.913Z,-0.51
2024-01-06T22:54:46.841Z,-0.50
2024-01-06T22:57:20.068Z,-0.51
2024-01-06T22:59:54.666Z,-0.48
2024-01-06T23:02:27.484Z,-0.54
2024-01-06T23:05:00.654Z,-0.58
2024-01-06T23:07:35.263Z,-0.52
2024-01-06T23:10:09.734Z,-0.58
2024-01-06T23:12:42.951Z,-0.55
2024-01-06T23:15:17.330Z,-0.59
2024-01-06T23:17:51.082Z,-0.57
2024-01-06T23:20:24.637Z,-0.57
2024-01-06T23:23:00.271Z,-0.60
2024-01-06T23:25:33.551Z,-0.71
2024-01-06T23:28:07.182Z,-0.74
2024-01-06T23:30:44.113Z,-0.78
2024-01-06T23:33:17.178Z,-0.83
2024-01-06T23:35:50.324Z,-0.89
2024-01-06T23:38:23.161Z,-0.93
2024-01-06T23:40:58.808Z,-1.03
2024-01-06T23:43:31.933Z,-1.01
2024-01-06T23:46:06.704Z,-1.01
2024-01-06T23:48:40.058Z,-0.97
2024-01-06T23:51:17.842Z,-1.10
2024-01-06T23:53:53.799Z,-1.17
2024-01-06T23:56:27.769Z,-1.12
2024-01-06T23:59:01.204Z,-1.20
